createdAt,value
2022-11-28T00:01:35.575Z,8.90
2022-11-28T00:04:03.183Z,8.93
2022-11-28T00:06:30.213Z,9.00
2022-11-28T00:09:00.724Z,9.20
2022-11-28T00:11:28.038Z,8.73
2022-11-28T00:13:55.362Z,9.17
2022-11-28T00:16:22.884Z,9.03
2022-11-28T00:18:50.678Z,9.40
2022-11-28T00:21:18.005Z,9.63
2022-11-28T00:23:45.818Z,8.83
2022-11-28T00:26:20.499Z,9.40
2022-11-28T00:28:47.904Z,10.10
2022-11-28T00:31:16.340Z,8.93
2022-11-28T00:33:43.466Z,8.50
2022-11-28T00:36:11.131Z,8.47
2022-11-28T00:38:38.208Z,8.97
2022-11-28T00:41:06.760Z,8.67
2022-11-28T00:43:34.030Z,8.63
2022-11-28T00:46:01.164Z,8.83
2022-11-28T00:48:28.212Z,7.90
2022-11-28T00:50:55.284Z,8.40
2022-11-28T00:53:22.504Z,8.73
2022-11-28T00:55:49.469Z,9.13
2022-11-28T00:58:16.453Z,9.07
2022-11-28T01:00:43.515Z,8.53
2022-11-28T01:03:10.524Z,9.40
2022-11-28T01:05:41.562Z,8.97
2022-11-28T01:08:08.550Z,9.03
2022-11-28T01:10:35.666Z,8.47
2022-11-28T01:13:02.833Z,8.23
2022-11-28T01:15:29.804Z,8.83
2022-11-28T01:17:56.775Z,9.00
2022-11-28T01:20:23.775Z,8.07
2022-11-28T01:22:50.754Z,8.60
2022-11-28T01:25:17.725Z,8.83
2022-11-28T01:27:44.686Z,8.50
2022-11-28T01:30:11.697Z,8.53
2022-11-28T01:32:38.881Z,8.80
2022-11-28T01:35:06.004Z,9.13
2022-11-28T01:37:33.048Z,8.50
2022-11-28T01:40:00.014Z,8.33
2022-11-28T01:42:27.092Z,8.57
2022-11-28T01:44:54.035Z,8.87
2022-11-28T01:47:26.410Z,8.60
2022-11-28T01:49:55.186Z,8.47
2022-11-28T01:52:22.647Z,10.10
2022-11-28T01:54:51.367Z,8.50
2022-11-28T01:57:19.845Z,8.73
2022-11-28T01:59:54.402Z,7.37
2022-11-28T02:02:25.533Z,8.70
2022-11-28T02:04:52.838Z,7.50
2022-11-28T02:07:20.723Z,8.07
2022-11-28T02:09:47.752Z,7.97
2022-11-28T02:12:17.721Z,8.13
2022-11-28T02:14:51.796Z,8.37
2022-11-28T02:17:33.675Z,8.23
2022-11-28T02:20:14.232Z,7.63
2022-11-28T02:22:42.845Z,8.23
2022-11-28T02:25:13.663Z,8.10
2022-11-28T02:27:54.112Z,7.80
2022-11-28T02:30:39.822Z,7.90
2022-11-28T02:33:13.188Z,9.35
2022-11-28T02:35:43.148Z,8.03
2022-11-28T02:38:16.333Z,7.87
2022-11-28T02:40:58.361Z,8.00
2022-11-28T02:43:40.874Z,7.53
2022-11-28T02:46:14.620Z,8.10
2022-11-28T02:48:41.619Z,7.80
2022-11-28T02:51:14.804Z,7.43
2022-11-28T02:53:44.228Z,7.63
2022-11-28T02:56:11.817Z,7.97
2022-11-28T02:58:39.122Z,8.87
2022-11-28T03:01:07.494Z,7.30
2022-11-28T03:03:39.515Z,6.90
2022-11-28T03:06:14.172Z,7.80
2022-11-28T03:09:00.089Z,8.17
2022-11-28T03:11:42.196Z,8.80
2022-11-28T03:14:17.995Z,7.83
2022-11-28T03:17:03.772Z,8.00
2022-11-28T03:19:38.158Z,6.60
2022-11-28T03:22:10.528Z,8.20
2022-11-28T03:24:44.415Z,7.77
2022-11-28T03:27:24.825Z,7.13
2022-11-28T03:29:55.268Z,7.13
2022-11-28T03:32:28.877Z,7.43
2022-11-28T03:34:59.936Z,6.97
2022-11-28T03:37:33.042Z,8.10
2022-11-28T03:40:01.278Z,7.47
2022-11-28T03:42:29.492Z,7.53
2022-11-28T03:44:56.425Z,7.67
2022-11-28T03:47:25.860Z,7.00
2022-11-28T03:49:54.334Z,7.07
2022-11-28T03:52:32.599Z,8.02
2022-11-28T03:55:01.724Z,7.60
2022-11-28T03:57:37.844Z,7.37
2022-11-28T04:00:07.299Z,6.73
2022-11-28T04:02:34.291Z,7.13
2022-11-28T04:05:09.479Z,7.13
2022-11-28T04:07:39.264Z,6.93
2022-11-28T04:10:15.734Z,7.87
2022-11-28T04:12:54.119Z,7.70
2022-11-28T04:15:40.080Z,6.90
2022-11-28T04:18:10.146Z,7.10
2022-11-28T04:20:42.519Z,6.77
2022-11-28T04:23:14.330Z,6.73
2022-11-28T04:25:44.703Z,7.33
2022-11-28T04:28:13.657Z,7.53
2022-11-28T04:30:41.797Z,6.68
2022-11-28T04:33:10.687Z,7.13
2022-11-28T04:35:40.362Z,6.80
2022-11-28T04:38:08.165Z,6.73
2022-11-28T04:40:38.348Z,7.17
2022-11-28T04:43:09.084Z,6.93
2022-11-28T04:45:38.888Z,6.70
2022-11-28T04:48:06.627Z,7.37
2022-11-28T04:50:46.714Z,6.80
2022-11-28T04:53:16.270Z,6.80
2022-11-28T04:55:49.276Z,6.60
2022-11-28T04:58:23.025Z,7.03
2022-11-28T05:00:51.484Z,7.63
2022-11-28T05:03:18.973Z,7.50
2022-11-28T05:05:50.066Z,7.43
2022-11-28T05:08:17.866Z,7.00
2022-11-28T05:10:45.055Z,8.00
2022-11-28T05:13:12.063Z,7.37
2022-11-28T05:15:39.157Z,7.73
2022-11-28T05:18:06.285Z,7.00
2022-11-28T05:20:33.330Z,6.97
2022-11-28T05:23:00.343Z,7.50
2022-11-28T05:25:27.369Z,6.77
2022-11-28T05:27:54.385Z,7.43
2022-11-28T05:30:21.380Z,7.27
2022-11-28T05:32:48.442Z,7.13
2022-11-28T05:35:15.462Z,7.63
2022-11-28T05:37:42.472Z,8.23
2022-11-28T05:40:09.750Z,7.27
2022-11-28T05:42:37.313Z,7.90
2022-11-28T05:45:04.637Z,7.80
2022-11-28T05:47:32.522Z,8.40
2022-11-28T05:49:59.578Z,8.30
2022-11-28T05:52:29.440Z,8.60
2022-11-28T05:54:56.474Z,8.03
2022-11-28T05:57:23.441Z,7.80
2022-11-28T05:59:50.392Z,7.80
2022-11-28T06:02:17.463Z,7.83
2022-11-28T06:04:44.594Z,7.63
2022-11-28T06:07:11.635Z,8.93
2022-11-28T06:09:38.597Z,9.13
2022-11-28T06:12:05.684Z,9.03
2022-11-28T06:14:33.016Z,8.10
2022-11-28T06:17:00.063Z,8.63
2022-11-28T06:19:27.144Z,8.23
2022-11-28T06:21:56.078Z,8.43
2022-11-28T06:24:23.040Z,8.10
2022-11-28T06:26:50.083Z,8.23
2022-11-28T06:29:17.117Z,7.70
2022-11-28T06:31:44.123Z,7.80
2022-11-28T06:34:12.742Z,7.73
2022-11-28T06:36:40.009Z,8.73
2022-11-28T06:39:07.094Z,8.60
2022-11-28T06:41:34.141Z,7.90
2022-11-28T06:44:01.116Z,8.23
2022-11-28T06:46:28.127Z,8.73
2022-11-28T06:48:55.242Z,9.07
2022-11-28T06:51:22.333Z,9.00
2022-11-28T06:53:49.710Z,8.50
2022-11-28T06:56:18.296Z,7.90
2022-11-28T06:58:45.695Z,8.80
2022-11-28T07:01:14.022Z,8.47
2022-11-28T07:03:41.592Z,9.03
2022-11-28T07:06:08.775Z,8.37
2022-11-28T07:08:37.237Z,8.10
2022-11-28T07:11:08.393Z,7.90
2022-11-28T07:13:35.478Z,8.00
2022-11-28T07:16:02.490Z,8.20
2022-11-28T07:18:29.542Z,8.43
2022-11-28T07:20:56.593Z,8.07
2022-11-28T07:23:23.588Z,8.40
2022-11-28T07:25:50.556Z,8.80
2022-11-28T07:28:20.664Z,7.70
2022-11-28T07:30:50.148Z,8.50
2022-11-28T07:33:17.105Z,7.77
2022-11-28T07:35:44.059Z,7.33
2022-11-28T07:38:11.035Z,7.93
2022-11-28T07:40:38.005Z,7.90
2022-11-28T07:43:05.008Z,7.87
2022-11-28T07:45:47.458Z,8.03
2022-11-28T07:48:18.913Z,8.03
2022-11-28T07:50:45.881Z,8.20
2022-11-28T07:53:12.849Z,7.63
2022-11-28T07:55:39.840Z,7.03
2022-11-28T07:58:06.856Z,6.90
2022-11-28T08:00:33.838Z,9.00
2022-11-28T08:03:00.838Z,7.90
2022-11-28T08:05:27.806Z,8.17
2022-11-28T08:07:54.913Z,8.40
2022-11-28T08:10:22.102Z,8.30
2022-11-28T08:12:49.493Z,7.53
2022-11-28T08:15:16.560Z,8.33
2022-11-28T08:17:43.527Z,7.73
2022-11-28T08:20:10.724Z,9.52
2022-11-28T08:22:37.729Z,8.77
2022-11-28T08:25:04.761Z,8.40
2022-11-28T08:27:32.474Z,8.17
2022-11-28T08:29:59.452Z,8.53
2022-11-28T08:32:26.457Z,8.40
2022-11-28T08:34:53.426Z,8.53
2022-11-28T08:37:20.402Z,7.90
2022-11-28T08:39:47.358Z,8.33
2022-11-28T08:42:14.397Z,8.57
2022-11-28T08:44:41.385Z,8.97
2022-11-28T08:47:08.765Z,8.23
2022-11-28T08:49:37.145Z,9.50
2022-11-28T08:52:04.947Z,7.87
2022-11-28T08:54:31.994Z,8.43
2022-11-28T08:56:59.167Z,7.97
2022-11-28T08:59:26.133Z,9.60
2022-11-28T09:01:53.934Z,8.43
2022-11-28T09:04:21.642Z,8.50
2022-11-28T09:06:48.817Z,7.73
2022-11-28T09:09:16.065Z,8.73
2022-11-28T09:11:43.499Z,7.97
2022-11-28T09:14:10.752Z,7.97
2022-11-28T09:16:41.265Z,8.70
2022-11-28T09:19:10.516Z,7.30
2022-11-28T09:21:37.791Z,8.20
2022-11-28T09:24:04.941Z,8.70
2022-11-28T09:26:33.158Z,8.37
2022-11-28T09:29:00.321Z,7.23
2022-11-28T09:31:27.391Z,7.83
2022-11-28T09:33:54.400Z,8.07
2022-11-28T09:36:22.212Z,8.82
2022-11-28T09:38:49.356Z,8.33
2022-11-28T09:41:34.953Z,8.77
2022-11-28T09:44:04.229Z,8.50
2022-11-28T09:46:34.160Z,9.23
2022-11-28T09:49:03.668Z,8.80
2022-11-28T09:51:49.136Z,9.10
2022-11-28T09:54:16.081Z,8.67
2022-11-28T09:56:44.641Z,7.80
2022-11-28T09:59:17.618Z,8.23
2022-11-28T10:01:49.750Z,9.33
2022-11-28T10:04:52.467Z,9.13
2022-11-28T10:07:23.619Z,8.13
2022-11-28T10:09:50.597Z,9.20
2022-11-28T10:12:23.613Z,8.50
2022-11-28T10:15:09.391Z,9.07
2022-11-28T10:17:36.343Z,8.70
2022-11-28T10:20:06.544Z,8.53
2022-11-28T10:22:49.143Z,7.83
2022-11-28T10:25:28.903Z,8.10
2022-11-28T10:27:57.061Z,8.73
2022-11-28T10:30:29.567Z,8.60
2022-11-28T10:33:02.286Z,10.03
2022-11-28T10:35:36.733Z,9.20
2022-11-28T10:38:03.749Z,8.77
2022-11-28T10:40:49.522Z,9.50
2022-11-28T10:43:25.646Z,9.70
2022-11-28T10:46:03.374Z,9.50
2022-11-28T10:48:41.579Z,9.30
2022-11-28T10:51:20.570Z,9.60
2022-11-28T10:53:58.165Z,8.70
2022-11-28T10:56:31.102Z,9.00
2022-11-28T10:59:16.948Z,8.20
2022-11-28T11:01:49.810Z,9.50
2022-11-28T11:04:21.617Z,8.13
2022-11-28T11:07:11.391Z,9.33
2022-11-28T11:09:43.930Z,7.77
2022-11-28T11:12:16.316Z,10.23
2022-11-28T11:14:43.547Z,9.70
2022-11-28T11:17:25.013Z,9.23
2022-11-28T11:19:52.004Z,8.83
2022-11-28T11:22:21.374Z,10.90
2022-11-28T11:25:06.936Z,10.13
2022-11-28T11:27:35.898Z,10.77
2022-11-28T11:30:16.195Z,9.63
2022-11-28T11:32:51.228Z,9.68
2022-11-28T11:35:22.104Z,8.83
2022-11-28T11:37:49.212Z,7.60
2022-11-28T11:40:25.878Z,8.00
2022-11-28T11:43:00.274Z,7.83
2022-11-28T11:45:31.613Z,9.00
2022-11-28T11:47:59.577Z,8.33
2022-11-28T11:50:28.344Z,8.77
2022-11-28T11:53:12.805Z,8.57
2022-11-28T11:55:50.645Z,9.23
2022-11-28T11:58:20.530Z,8.87
2022-11-28T12:00:47.602Z,8.27
2022-11-28T12:03:20.861Z,8.67
2022-11-28T12:08:44.737Z,9.77
2022-11-28T12:11:26.808Z,8.73
2022-11-28T12:13:53.964Z,9.17
2022-11-28T12:16:39.084Z,8.30
2022-11-28T12:19:13.327Z,9.27
2022-11-28T12:21:53.705Z,8.83
2022-11-28T12:24:25.886Z,9.30
2022-11-28T12:26:58.931Z,9.20
2022-11-28T12:29:43.083Z,8.83
2022-11-28T12:32:16.331Z,8.27
2022-11-28T12:34:52.217Z,8.27
2022-11-28T12:37:42.281Z,8.07
2022-11-28T12:40:32.046Z,8.73
2022-11-28T12:43:18.607Z,9.10
2022-11-28T12:46:06.384Z,8.80
2022-11-28T12:48:38.808Z,9.52
2022-11-28T12:51:32.945Z,7.97
2022-11-28T12:54:03.748Z,8.57
2022-11-28T12:56:56.822Z,8.83
2022-11-28T12:59:50.134Z,8.97
2022-11-28T13:02:37.946Z,8.43
2022-11-28T13:05:18.884Z,9.00
2022-11-28T13:08:04.341Z,9.87
2022-11-28T13:11:23.263Z,9.33
2022-11-28T13:14:36.808Z,8.47
2022-11-28T13:17:17.890Z,8.90
2022-11-28T13:19:58.940Z,10.03
2022-11-28T13:22:37.696Z,9.20
2022-11-28T13:25:20.223Z,9.60
2022-11-28T13:28:14.005Z,9.07
2022-11-28T13:30:54.873Z,9.73
2022-11-28T13:33:33.610Z,10.27
2022-11-28T13:36:01.219Z,8.83
2022-11-28T13:39:11.233Z,9.73
2022-11-28T13:42:21.422Z,10.70
2022-11-28T13:44:50.013Z,11.17
2022-11-28T13:47:22.668Z,12.17
2022-11-28T13:49:49.620Z,11.10
2022-11-28T13:52:21.619Z,11.20
2022-11-28T13:54:58.220Z,13.07
2022-11-28T13:58:22.224Z,11.83
2022-11-28T14:01:00.576Z,12.23
2022-11-28T14:03:27.670Z,12.57
2022-11-28T14:05:57.934Z,13.45
2022-11-28T14:08:39.531Z,12.47
2022-11-28T14:11:09.442Z,11.67
2022-11-28T14:13:44.728Z,11.63
2022-11-28T14:16:14.803Z,12.67
2022-11-28T14:18:56.883Z,12.77
2022-11-28T14:21:30.294Z,14.27
2022-11-28T14:24:05.238Z,14.67
2022-11-28T14:26:34.724Z,13.07
2022-11-28T14:29:03.752Z,13.57
2022-11-28T14:31:40.238Z,13.93
2022-11-28T14:34:11.413Z,13.83
2022-11-28T14:36:41.929Z,14.10
2022-11-28T14:39:12.101Z,14.80
2022-11-28T14:41:58.168Z,14.20
2022-11-28T14:44:45.601Z,13.83
2022-11-28T14:47:18.138Z,13.07
2022-11-28T14:49:45.405Z,12.23
2022-11-28T14:52:38.479Z,13.40
2022-11-28T14:55:06.805Z,13.70
2022-11-28T14:57:35.954Z,12.50
2022-11-28T15:00:08.010Z,12.47
2022-11-28T15:03:02.285Z,13.50
2022-11-28T15:05:46.085Z,13.50
2022-11-28T15:08:16.046Z,15.00
2022-11-28T15:10:43.085Z,13.03
2022-11-28T15:13:28.889Z,14.80
2022-11-28T15:15:56.015Z,14.53
2022-11-28T15:18:24.804Z,13.73
2022-11-28T15:21:01.028Z,15.48
2022-11-28T15:23:32.460Z,14.37
2022-11-28T15:26:00.094Z,15.13
2022-11-28T15:28:28.794Z,15.00
2022-11-28T15:30:57.833Z,14.27
2022-11-28T15:33:26.248Z,15.40
2022-11-28T15:36:02.062Z,14.33
2022-11-28T15:38:30.621Z,14.90
2022-11-28T15:40:58.992Z,14.47
2022-11-28T15:43:26.370Z,15.43
2022-11-28T15:46:02.490Z,14.63
2022-11-28T15:48:47.440Z,14.37
2022-11-28T15:51:32.666Z,14.07
2022-11-28T15:54:19.868Z,15.77
2022-11-28T15:56:59.594Z,19.02
2022-11-28T15:59:26.294Z,16.80
2022-11-28T16:01:59.412Z,14.73
2022-11-28T16:04:27.304Z,14.57
2022-11-28T16:06:57.499Z,15.00
2022-11-28T16:09:28.313Z,16.13
2022-11-28T16:11:55.174Z,14.73
2022-11-28T16:14:34.280Z,15.63
2022-11-28T16:17:06.678Z,16.00
2022-11-28T16:19:36.362Z,15.77
2022-11-28T16:22:18.943Z,15.17
2022-11-28T16:24:48.219Z,14.90
2022-11-28T16:27:34.614Z,16.33
2022-11-28T16:30:02.855Z,16.47
2022-11-28T16:32:37.795Z,15.73
2022-11-28T16:35:05.702Z,16.23
2022-11-28T16:37:32.886Z,19.60
2022-11-28T16:40:24.082Z,17.30
2022-11-28T16:42:55.013Z,16.67
2022-11-28T16:45:29.142Z,15.70
2022-11-28T16:48:00.986Z,17.40
2022-11-28T16:50:27.866Z,16.80
2022-11-28T16:52:57.797Z,16.67
2022-11-28T16:55:30.257Z,18.53
2022-11-28T16:58:10.312Z,22.87
2022-11-28T17:00:39.580Z,23.53
2022-11-28T17:03:11.654Z,20.93
2022-11-28T17:05:39.407Z,22.07
2022-11-28T17:08:07.374Z,22.83
2022-11-28T17:10:33.924Z,25.07
2022-11-28T17:13:00.466Z,21.87
2022-11-28T17:15:26.990Z,20.73
2022-11-28T17:17:55.646Z,22.57
2022-11-28T17:20:22.192Z,19.00
2022-11-28T17:22:50.985Z,20.47
2022-11-28T17:25:20.392Z,23.47
2022-11-28T17:27:48.077Z,19.97
2022-11-28T17:30:16.124Z,19.20
2022-11-28T17:32:42.673Z,19.13
2022-11-28T17:35:13.767Z,19.50
2022-11-28T17:37:40.314Z,21.67
2022-11-28T17:40:26.285Z,19.70
2022-11-28T17:42:52.871Z,19.10
2022-11-28T17:45:21.704Z,20.30
2022-11-28T17:47:48.261Z,20.20
2022-11-28T17:50:14.939Z,20.43
2022-11-28T17:52:42.857Z,19.20
2022-11-28T17:55:11.293Z,18.40
2022-11-28T17:57:39.394Z,17.67
2022-11-28T18:00:07.950Z,17.87
2022-11-28T18:02:35.970Z,17.83
2022-11-28T18:05:05.099Z,18.17
2022-11-28T18:07:33.097Z,18.83
2022-11-28T18:10:01.278Z,18.43
2022-11-28T18:12:30.620Z,17.90
2022-11-28T18:15:00.894Z,17.80
2022-11-28T18:17:28.030Z,17.43
2022-11-28T18:19:57.745Z,18.67
2022-11-28T18:22:25.102Z,21.47
2022-11-28T18:24:52.085Z,20.43
2022-11-28T18:27:19.072Z,20.00
2022-11-28T18:29:46.313Z,25.67
2022-11-28T18:32:13.508Z,26.53
2022-11-28T18:34:40.524Z,27.63
2022-11-28T18:37:08.263Z,25.00
2022-11-28T18:39:35.342Z,27.40
2022-11-28T18:42:02.346Z,27.83
2022-11-28T18:44:29.348Z,24.30
2022-11-28T18:46:56.320Z,24.87
2022-11-28T18:49:23.360Z,24.37
2022-11-28T18:51:50.489Z,22.37
2022-11-28T18:54:21.080Z,22.00
2022-11-28T18:56:48.776Z,21.70
2022-11-28T18:59:15.745Z,32.10
2022-11-28T19:01:42.732Z,36.33
2022-11-28T19:04:11.926Z,26.67
2022-11-28T19:06:39.494Z,24.30
2022-11-28T19:09:07.613Z,28.37
2022-11-28T19:11:34.653Z,23.00
2022-11-28T19:14:01.672Z,21.63
2022-11-28T19:16:30.119Z,24.37
2022-11-28T19:18:57.386Z,23.67
2022-11-28T19:21:25.676Z,23.90
2022-11-28T19:23:53.082Z,25.43
2022-11-28T19:26:21.809Z,26.03
2022-11-28T19:28:49.063Z,25.37
2022-11-28T19:31:21.165Z,24.47
2022-11-28T19:34:00.268Z,24.97
2022-11-28T19:36:28.348Z,26.33
2022-11-28T19:38:55.394Z,24.23
2022-11-28T19:41:22.819Z,23.63
2022-11-28T19:43:49.977Z,24.53
2022-11-28T19:46:16.981Z,23.40
2022-11-28T19:48:44.307Z,23.90
2022-11-28T19:51:12.334Z,22.30
2022-11-28T19:53:40.583Z,26.00
2022-11-28T19:56:08.976Z,25.73
2022-11-28T19:58:36.214Z,26.40
2022-11-28T20:01:10.351Z,26.37
2022-11-28T20:03:37.993Z,25.30
2022-11-28T20:06:12.450Z,27.23
2022-11-28T20:08:39.906Z,26.47
2022-11-28T20:11:20.276Z,25.47
2022-11-28T20:13:48.247Z,26.77
2022-11-28T20:16:16.495Z,27.20
2022-11-28T20:18:44.067Z,25.37
2022-11-28T20:21:15.933Z,25.53
2022-11-28T20:23:46.854Z,28.88
2022-11-28T20:26:14.619Z,27.40
2022-11-28T20:28:42.279Z,25.07
2022-11-28T20:31:17.401Z,24.43
2022-11-28T20:33:44.466Z,25.20
2022-11-28T20:36:13.395Z,25.33
2022-11-28T20:38:40.413Z,27.27
2022-11-28T20:41:08.709Z,25.70
2022-11-28T20:43:37.071Z,26.83
2022-11-28T20:46:05.078Z,26.40
2022-11-28T20:48:32.125Z,26.50
2022-11-28T20:50:59.151Z,24.83
2022-11-28T20:53:27.033Z,26.70
2022-11-28T20:56:05.561Z,29.83
2022-11-28T20:58:32.880Z,28.67
2022-11-28T21:00:59.908Z,25.83
2022-11-28T21:03:27.117Z,24.57
2022-11-28T21:06:00.730Z,25.33
2022-11-28T21:08:30.312Z,24.43
2022-11-28T21:10:57.301Z,25.37
2022-11-28T21:13:24.425Z,25.03
2022-11-28T21:15:53.361Z,22.57
2022-11-28T21:18:20.354Z,22.30
2022-11-28T21:20:47.602Z,22.60
2022-11-28T21:23:15.974Z,23.27
2022-11-28T21:25:43.708Z,23.97
2022-11-28T21:28:11.225Z,22.73
2022-11-28T21:30:45.591Z,21.17
2022-11-28T21:33:13.082Z,22.13
2022-11-28T21:35:40.499Z,20.97
2022-11-28T21:38:08.167Z,22.07
2022-11-28T21:40:35.241Z,33.90
2022-11-28T21:43:02.415Z,35.43
2022-11-28T21:45:29.519Z,24.33
2022-11-28T21:47:56.542Z,23.70
2022-11-28T21:50:23.257Z,21.97
2022-11-28T21:52:49.845Z,20.10
2022-11-28T21:55:16.424Z,20.10
2022-11-28T21:57:43.060Z,20.97
2022-11-28T22:00:20.717Z,21.17
2022-11-28T22:03:02.882Z,20.43
2022-11-28T22:05:32.125Z,20.40
2022-11-28T22:07:58.921Z,22.37
2022-11-28T22:10:25.852Z,21.13
2022-11-28T22:12:53.470Z,22.53
2022-11-28T22:15:22.093Z,25.70
2022-11-28T22:17:49.148Z,21.37
2022-11-28T22:20:16.134Z,22.17
2022-11-28T22:22:43.151Z,19.47
2022-11-28T22:25:10.148Z,21.17
2022-11-28T22:27:37.973Z,21.80
2022-11-28T22:30:08.337Z,20.63
2022-11-28T22:32:35.373Z,22.43
2022-11-28T22:35:02.807Z,21.53
2022-11-28T22:37:29.877Z,21.17
2022-11-28T22:39:56.874Z,22.53
2022-11-28T22:42:23.840Z,22.13
2022-11-28T22:44:50.829Z,21.50
2022-11-28T22:47:17.841Z,21.10
2022-11-28T22:49:44.787Z,20.20
2022-11-28T22:52:11.870Z,21.43
2022-11-28T22:54:38.856Z,19.27
2022-11-28T22:57:05.885Z,20.27
2022-11-28T22:59:35.092Z,22.17
2022-11-28T23:02:03.306Z,22.37
2022-11-28T23:04:30.429Z,21.63
2022-11-28T23:06:57.424Z,21.50
2022-11-28T23:09:24.439Z,21.53
2022-11-28T23:11:51.455Z,22.43
2022-11-28T23:14:18.435Z,22.60
2022-11-28T23:16:45.927Z,23.67
2022-11-28T23:19:14.839Z,22.63
2022-11-28T23:21:43.156Z,22.40
2022-11-28T23:24:12.748Z,21.67
2022-11-28T23:26:39.800Z,25.40
2022-11-28T23:29:06.993Z,23.20
2022-11-28T23:31:34.869Z,31.30
2022-11-28T23:34:02.396Z,24.93
2022-11-28T23:36:38.456Z,22.17
2022-11-28T23:39:11.001Z,21.73
2022-11-28T23:41:38.058Z,21.97
2022-11-28T23:44:05.301Z,21.83
2022-11-28T23:46:33.177Z,21.20
2022-11-28T23:48:59.716Z,22.00
2022-11-28T23:51:26.411Z,21.67
2022-11-28T23:53:53.499Z,20.80
2022-11-28T23:56:23.058Z,20.10
2022-11-28T23:58:51.201Z,19.90
